createdAt,value
2018-01-22T00:00:10.279Z,999.7
2018-01-22T00:01:12.228Z,999.6
2018-01-22T00:02:13.846Z,999.6
2018-01-22T00:03:15.453Z,999.6
2018-01-22T00:04:17.546Z,999.6
2018-01-22T00:05:19.417Z,999.6
2018-01-22T00:06:21.424Z,999.7
2018-01-22T00:07:23.032Z,999.7
2018-01-22T00:08:24.633Z,999.7
2018-01-22T00:09:26.830Z,999.7
2018-01-22T00:10:28.438Z,999.7
2018-01-22T00:11:30.344Z,999.7
2018-01-22T00:12:32.152Z,999.6
2018-01-22T00:13:34.068Z,999.5
2018-01-22T00:14:36.098Z,999.6
2018-01-22T00:15:37.703Z,999.6
2018-01-22T00:16:39.313Z,999.6
2018-01-22T00:17:40.919Z,999.6
2018-01-22T00:18:42.707Z,999.6
2018-01-22T00:19:44.563Z,999.5
2018-01-22T00:20:46.169Z,999.5
2018-01-22T00:21:47.775Z,999.5
2018-01-22T00:22:49.376Z,999.5
2018-01-22T00:23:51.225Z,999.4
2018-01-22T00:24:53.101Z,999.4
2018-01-22T00:25:54.811Z,999.4
2018-01-22T00:26:56.632Z,999.4
2018-01-22T00:27:58.239Z,999.3
2018-01-22T00:28:59.849Z,999.2
2018-01-22T00:30:01.459Z,999.1
2018-01-22T00:31:03.064Z,999.0
2018-01-22T00:32:04.669Z,999.0
2018-01-22T00:33:06.278Z,998.9
2018-01-22T00:34:07.888Z,998.9
2018-01-22T00:35:09.487Z,998.9
2018-01-22T00:36:11.094Z,998.9
2018-01-22T00:37:12.696Z,998.8
2018-01-22T00:38:14.304Z,998.8
2018-01-22T00:39:15.908Z,998.8
2018-01-22T00:40:17.517Z,998.8
2018-01-22T00:41:19.121Z,998.7
2018-01-22T00:42:20.727Z,998.7
2018-01-22T00:43:22.328Z,998.7
2018-01-22T00:44:23.933Z,998.6
2018-01-22T00:45:25.533Z,998.6
2018-01-22T00:46:27.138Z,998.6
2018-01-22T00:47:28.744Z,998.6
2018-01-22T00:48:30.353Z,998.5
2018-01-22T00:49:31.955Z,998.6
2018-01-22T00:50:33.555Z,998.6
2018-01-22T00:51:35.161Z,998.5
2018-01-22T00:52:36.763Z,998.5
2018-01-22T00:53:38.374Z,998.5
2018-01-22T00:54:39.977Z,998.5
2018-01-22T00:55:41.592Z,998.5
2018-01-22T00:56:43.189Z,998.5
2018-01-22T00:57:44.797Z,998.5
2018-01-22T00:58:46.404Z,998.5
2018-01-22T00:59:48.007Z,998.5
2018-01-22T01:00:49.614Z,998.5
2018-01-22T01:01:51.223Z,998.5
2018-01-22T01:02:52.824Z,998.5
2018-01-22T01:03:54.430Z,998.6
2018-01-22T01:04:56.030Z,998.3
2018-01-22T01:05:57.634Z,998.2
2018-01-22T01:06:59.242Z,998.2
2018-01-22T01:08:01.747Z,998.1
2018-01-22T01:09:03.350Z,998.1
2018-01-22T01:10:04.961Z,998.1
2018-01-22T01:11:06.565Z,998.0
2018-01-22T01:12:08.170Z,998.0
2018-01-22T01:13:09.774Z,998.0
2018-01-22T01:14:11.385Z,997.9
2018-01-22T01:15:12.989Z,997.9
2018-01-22T01:16:14.596Z,997.8
2018-01-22T01:17:16.204Z,997.8
2018-01-22T01:18:17.807Z,997.8
2018-01-22T01:19:19.409Z,997.8
2018-01-22T01:20:21.014Z,997.7
2018-01-22T01:21:22.621Z,997.7
2018-01-22T01:22:24.226Z,997.7
2018-01-22T01:23:25.830Z,997.7
2018-01-22T01:24:27.440Z,997.6
2018-01-22T01:25:29.042Z,997.6
2018-01-22T01:26:30.652Z,997.6
2018-01-22T01:27:32.254Z,997.5
2018-01-22T01:28:33.863Z,997.5
2018-01-22T01:29:35.464Z,997.6
2018-01-22T01:30:37.074Z,997.6
2018-01-22T01:31:38.677Z,997.5
2018-01-22T01:32:40.284Z,997.5
2018-01-22T01:33:41.890Z,997.5
2018-01-22T01:34:43.494Z,997.5
2018-01-22T01:35:45.097Z,997.5
2018-01-22T01:36:46.709Z,997.5
2018-01-22T01:37:48.319Z,997.5
2018-01-22T01:38:49.916Z,997.5
2018-01-22T01:39:51.519Z,997.5
2018-01-22T01:40:53.127Z,997.6
2018-01-22T01:41:54.734Z,997.5
2018-01-22T01:42:56.336Z,997.5
2018-01-22T01:43:57.940Z,997.5
2018-01-22T01:44:59.552Z,997.4
2018-01-22T01:46:01.161Z,997.4
2018-01-22T01:47:02.768Z,997.4
2018-01-22T01:48:04.371Z,997.4
2018-01-22T01:49:05.973Z,997.4
2018-01-22T01:50:07.577Z,997.4
2018-01-22T01:51:09.186Z,997.4
2018-01-22T01:52:10.793Z,997.4
2018-01-22T01:53:12.395Z,997.3
2018-01-22T01:54:13.996Z,997.3
2018-01-22T01:55:15.604Z,997.3
2018-01-22T01:56:17.205Z,997.3
2018-01-22T01:57:18.814Z,997.3
2018-01-22T01:58:20.423Z,997.3
2018-01-22T01:59:22.023Z,997.2
2018-01-22T02:00:23.630Z,997.2
2018-01-22T02:01:25.234Z,997.1
2018-01-22T02:02:26.844Z,997.1
2018-01-22T02:03:28.446Z,997.2
2018-01-22T02:04:30.053Z,997.1
2018-01-22T02:05:31.654Z,997.1
2018-01-22T02:06:33.261Z,997.0
2018-01-22T02:07:34.867Z,997.0
2018-01-22T02:08:36.471Z,997.0
2018-01-22T02:09:38.075Z,997.0
2018-01-22T02:10:39.684Z,997.0
2018-01-22T02:11:41.286Z,997.0
2018-01-22T02:12:42.894Z,996.9
2018-01-22T02:13:44.498Z,997.0
2018-01-22T02:14:46.106Z,996.9
2018-01-22T02:15:47.705Z,997.0
2018-01-22T02:16:49.314Z,996.9
2018-01-22T02:17:50.916Z,996.9
2018-01-22T02:18:52.527Z,996.9
2018-01-22T02:19:54.130Z,996.8
2018-01-22T02:20:55.734Z,996.8
2018-01-22T02:21:57.345Z,996.8
2018-01-22T02:22:58.944Z,996.8
2018-01-22T02:24:00.553Z,996.7
2018-01-22T02:25:02.153Z,996.7
2018-01-22T02:26:03.765Z,996.8
2018-01-22T02:27:05.367Z,996.8
2018-01-22T02:28:06.978Z,996.7
2018-01-22T02:29:08.582Z,996.6
2018-01-22T02:30:10.190Z,996.6
2018-01-22T02:31:11.795Z,996.7
2018-01-22T02:32:13.395Z,996.6
2018-01-22T02:33:15.001Z,996.6
2018-01-22T02:34:16.609Z,996.6
2018-01-22T02:35:18.220Z,996.5
2018-01-22T02:36:19.821Z,996.5
2018-01-22T02:37:21.428Z,996.5
2018-01-22T02:38:23.034Z,996.4
2018-01-22T02:39:24.651Z,996.5
2018-01-22T02:40:26.246Z,996.4
2018-01-22T02:41:27.846Z,996.3
2018-01-22T02:42:29.458Z,996.4
2018-01-22T02:43:31.064Z,996.4
2018-01-22T02:44:32.667Z,996.3
2018-01-22T02:45:34.275Z,996.3
2018-01-22T02:46:35.877Z,996.3
2018-01-22T02:47:37.482Z,996.3
2018-01-22T02:48:39.092Z,996.3
2018-01-22T02:49:40.701Z,996.3
2018-01-22T02:50:42.303Z,996.3
2018-01-22T02:51:43.905Z,996.3
2018-01-22T02:52:45.507Z,996.2
2018-01-22T02:53:47.118Z,996.2
2018-01-22T02:54:48.719Z,996.4
2018-01-22T02:55:50.322Z,996.2
2018-01-22T02:56:51.934Z,996.2
2018-01-22T02:57:53.543Z,996.2
2018-01-22T02:58:55.142Z,996.2
2018-01-22T02:59:56.744Z,996.2
2018-01-22T03:00:58.356Z,996.2
2018-01-22T03:01:59.955Z,996.2
2018-01-22T03:03:01.560Z,996.2
2018-01-22T03:04:03.171Z,996.1
2018-01-22T03:05:04.780Z,996.0
2018-01-22T03:06:06.386Z,996.0
2018-01-22T03:07:07.989Z,996.0
2018-01-22T03:08:09.596Z,995.9
2018-01-22T03:09:11.197Z,995.9
2018-01-22T03:10:12.808Z,995.9
2018-01-22T03:11:14.410Z,995.9
2018-01-22T03:12:16.017Z,995.8
2018-01-22T03:13:17.625Z,995.8
2018-01-22T03:14:19.230Z,995.8
2018-01-22T03:15:20.832Z,995.8
2018-01-22T03:16:22.439Z,995.9
2018-01-22T03:17:24.047Z,995.8
2018-01-22T03:18:25.649Z,995.8
2018-01-22T03:19:27.304Z,995.8
2018-01-22T03:20:28.862Z,995.8
2018-01-22T03:21:30.464Z,995.8
2018-01-22T03:22:32.072Z,995.8
2018-01-22T03:23:33.677Z,995.8
2018-01-22T03:24:35.280Z,995.8
2018-01-22T03:25:36.885Z,995.8
2018-01-22T03:26:38.495Z,995.7
2018-01-22T03:27:40.094Z,995.7
2018-01-22T03:28:41.704Z,995.7
2018-01-22T03:29:43.305Z,995.7
2018-01-22T03:30:44.915Z,995.7
2018-01-22T03:31:46.518Z,995.9
2018-01-22T03:32:48.126Z,995.7
2018-01-22T03:33:49.728Z,995.7
2018-01-22T03:34:51.333Z,995.7
2018-01-22T03:35:52.936Z,995.7
2018-01-22T03:36:54.593Z,995.8
2018-01-22T03:37:56.147Z,995.7
2018-01-22T03:38:57.757Z,995.6
2018-01-22T03:39:59.359Z,995.6
2018-01-22T03:41:00.969Z,995.6
2018-01-22T03:42:02.568Z,995.7
2018-01-22T03:43:04.178Z,995.5
2018-01-22T03:44:05.780Z,995.6
2018-01-22T03:45:07.384Z,995.6
2018-01-22T03:46:08.993Z,995.5
2018-01-22T03:47:10.603Z,995.5
2018-01-22T03:48:12.205Z,995.6
2018-01-22T03:49:13.809Z,995.5
2018-01-22T03:50:15.417Z,995.6
2018-01-22T03:51:17.022Z,995.6
2018-01-22T03:52:18.624Z,995.6
2018-01-22T03:53:20.230Z,995.6
2018-01-22T03:54:21.841Z,995.6
2018-01-22T03:55:23.450Z,995.6
2018-01-22T03:56:25.052Z,995.6
2018-01-22T03:57:26.655Z,995.6
2018-01-22T03:58:28.262Z,995.6
2018-01-22T03:59:29.866Z,995.6
2018-01-22T04:00:31.474Z,995.6
2018-01-22T04:01:33.083Z,995.6
2018-01-22T04:02:34.687Z,995.6
2018-01-22T04:03:36.291Z,995.6
2018-01-22T04:04:37.898Z,995.6
2018-01-22T04:05:39.506Z,995.6
2018-01-22T04:06:41.110Z,995.6
2018-01-22T04:07:42.717Z,995.5
2018-01-22T04:08:44.321Z,995.5
2018-01-22T04:09:45.925Z,995.5
2018-01-22T04:10:47.534Z,995.4
2018-01-22T04:11:49.142Z,995.4
2018-01-22T04:12:50.742Z,995.4
2018-01-22T04:13:52.350Z,995.4
2018-01-22T04:14:53.956Z,995.4
2018-01-22T04:15:55.561Z,995.4
2018-01-22T04:16:57.169Z,995.4
2018-01-22T04:17:58.769Z,995.4
2018-01-22T04:19:00.378Z,995.4
2018-01-22T04:20:01.978Z,995.5
2018-01-22T04:21:03.586Z,995.5
2018-01-22T04:22:05.191Z,995.5
2018-01-22T04:23:06.861Z,995.5
2018-01-22T04:24:08.409Z,995.5
2018-01-22T04:25:10.016Z,995.5
2018-01-22T04:26:11.618Z,995.6
2018-01-22T04:27:13.226Z,995.5
2018-01-22T04:28:14.829Z,995.5
2018-01-22T04:29:16.437Z,995.5
2018-01-22T04:30:18.039Z,995.4
2018-01-22T04:31:19.654Z,995.3
2018-01-22T04:32:21.257Z,995.4
2018-01-22T04:33:22.860Z,995.3
2018-01-22T04:34:24.468Z,995.3
2018-01-22T04:35:26.072Z,995.3
2018-01-22T04:36:27.681Z,995.3
2018-01-22T04:37:29.285Z,995.3
2018-01-22T04:38:30.895Z,995.3
2018-01-22T04:39:32.497Z,995.3
2018-01-22T04:40:34.106Z,995.3
2018-01-22T04:41:35.705Z,995.3
2018-01-22T04:42:37.317Z,995.3
2018-01-22T04:43:38.920Z,995.2
2018-01-22T04:44:40.531Z,995.2
2018-01-22T04:45:42.134Z,995.2
2018-01-22T04:46:43.740Z,995.2
2018-01-22T04:47:45.343Z,995.1
2018-01-22T04:48:46.951Z,995.0
2018-01-22T04:49:48.554Z,995.0
2018-01-22T04:50:50.165Z,994.9
2018-01-22T04:51:51.769Z,995.1
2018-01-22T04:52:53.378Z,995.1
2018-01-22T04:53:54.978Z,995.1
2018-01-22T04:54:56.588Z,995.0
2018-01-22T04:55:58.193Z,995.0
2018-01-22T04:56:59.798Z,995.0
2018-01-22T04:58:01.400Z,995.0
2018-01-22T04:59:03.005Z,995.1
2018-01-22T05:00:04.614Z,995.0
2018-01-22T05:01:06.219Z,995.1
2018-01-22T05:02:07.823Z,994.9
2018-01-22T05:03:09.432Z,994.9
2018-01-22T05:04:11.040Z,994.8
2018-01-22T05:05:12.652Z,994.8
2018-01-22T05:06:14.254Z,994.9
2018-01-22T05:07:15.862Z,994.8
2018-01-22T05:08:17.467Z,994.7
2018-01-22T05:09:19.072Z,994.7
2018-01-22T05:10:20.673Z,994.6
2018-01-22T05:11:22.279Z,994.6
2018-01-22T05:12:23.895Z,994.5
2018-01-22T05:13:25.497Z,994.6
2018-01-22T05:14:27.102Z,994.5
2018-01-22T05:15:28.705Z,994.5
2018-01-22T05:16:30.313Z,994.6
2018-01-22T05:17:31.919Z,994.5
2018-01-22T05:18:33.518Z,994.5
2018-01-22T05:19:35.126Z,994.4
2018-01-22T05:20:36.734Z,994.4
2018-01-22T05:21:38.342Z,994.5
2018-01-22T05:22:39.942Z,994.4
2018-01-22T05:23:41.546Z,994.4
2018-01-22T05:24:43.154Z,994.4
2018-01-22T05:25:44.762Z,994.4
2018-01-22T05:26:46.364Z,994.4
2018-01-22T05:27:47.968Z,994.3
2018-01-22T05:28:49.578Z,994.4
2018-01-22T05:29:51.178Z,994.4
2018-01-22T05:30:52.788Z,994.4
2018-01-22T05:31:54.390Z,994.4
2018-01-22T05:32:55.999Z,994.5
2018-01-22T05:33:57.601Z,994.5
2018-01-22T05:34:59.210Z,994.5
2018-01-22T05:36:00.816Z,994.4
2018-01-22T05:37:02.422Z,994.5
2018-01-22T05:38:04.023Z,994.5
2018-01-22T05:39:05.632Z,994.4
2018-01-22T05:40:07.235Z,994.4
2018-01-22T05:41:08.843Z,994.4
2018-01-22T05:42:10.445Z,994.4
2018-01-22T05:43:12.055Z,994.4
2018-01-22T05:44:13.654Z,994.4
2018-01-22T05:45:15.265Z,994.4
2018-01-22T05:46:16.868Z,994.4
2018-01-22T05:47:18.474Z,994.4
2018-01-22T05:48:20.075Z,994.4
2018-01-22T05:49:21.687Z,994.4
2018-01-22T05:50:23.291Z,994.4
2018-01-22T05:51:24.897Z,994.4
2018-01-22T05:52:26.499Z,994.4
2018-01-22T05:53:28.111Z,994.5
2018-01-22T05:54:29.715Z,994.5
2018-01-22T05:55:31.322Z,994.5
2018-01-22T05:56:32.931Z,994.5
2018-01-22T05:57:34.536Z,994.6
2018-01-22T05:58:36.138Z,994.5
2018-01-22T05:59:37.748Z,994.5
2018-01-22T06:00:39.355Z,994.4
2018-01-22T06:01:40.960Z,994.5
2018-01-22T06:02:42.565Z,994.5
2018-01-22T06:03:44.175Z,994.4
2018-01-22T06:04:45.781Z,994.4
2018-01-22T06:05:47.384Z,994.4
2018-01-22T06:06:48.986Z,994.4
2018-01-22T06:07:50.595Z,994.4
2018-01-22T06:08:52.204Z,994.4
2018-01-22T06:09:53.805Z,994.4
2018-01-22T06:10:55.418Z,994.4
2018-01-22T06:11:57.019Z,994.3
2018-01-22T06:12:58.623Z,994.4
2018-01-22T06:14:00.230Z,994.4
2018-01-22T06:15:01.836Z,994.4
2018-01-22T06:16:03.437Z,994.5
2018-01-22T06:17:05.040Z,994.5
2018-01-22T06:18:06.652Z,994.5
2018-01-22T06:19:08.263Z,994.5
2018-01-22T06:20:09.873Z,994.5
2018-01-22T06:21:11.479Z,994.6
2018-01-22T06:22:13.085Z,994.6
2018-01-22T06:23:14.690Z,994.6
2018-01-22T06:24:16.300Z,994.7
2018-01-22T06:25:17.914Z,994.7
2018-01-22T06:26:19.510Z,994.7
2018-01-22T06:27:21.122Z,994.7
2018-01-22T06:28:22.723Z,994.6
2018-01-22T06:29:24.332Z,994.6
2018-01-22T06:30:25.934Z,994.7
2018-01-22T06:31:27.547Z,994.6
2018-01-22T06:32:29.149Z,994.6
2018-01-22T06:33:30.765Z,994.5
2018-01-22T06:34:32.366Z,994.5
2018-01-22T06:35:33.978Z,994.5
2018-01-22T06:38:33.689Z,994.5
2018-01-22T06:39:35.292Z,994.6
2018-01-22T06:41:42.241Z,994.6
2018-01-22T06:42:43.848Z,994.6
2018-01-22T06:45:41.946Z,994.7
2018-01-22T06:46:43.550Z,994.6
2018-01-22T06:48:39.426Z,994.7
2018-01-22T06:49:41.030Z,994.7
2018-01-22T06:51:41.826Z,994.7
2018-01-22T06:52:43.430Z,994.8
2018-01-22T06:53:45.038Z,994.8
2018-01-22T06:54:46.642Z,994.8
2018-01-22T06:55:48.245Z,994.9
2018-01-22T06:56:49.853Z,994.9
2018-01-22T06:57:51.457Z,995.0
2018-01-22T06:58:53.064Z,994.9
2018-01-22T06:59:54.668Z,995.0
2018-01-22T07:00:56.273Z,994.9
2018-01-22T07:01:57.875Z,994.9
2018-01-22T07:02:59.487Z,995.0
2018-01-22T07:04:01.134Z,995.0
2018-01-22T07:05:02.695Z,995.0
2018-01-22T07:06:04.307Z,995.0
2018-01-22T07:07:05.912Z,995.0
2018-01-22T07:08:57.737Z,994.9
2018-01-22T07:09:59.338Z,994.8
2018-01-22T07:11:54.307Z,994.8
2018-01-22T07:12:55.911Z,994.7
2018-01-22T07:15:00.060Z,994.7
2018-01-22T07:16:01.665Z,994.8
2018-01-22T07:17:59.883Z,994.8
2018-01-22T07:19:01.494Z,994.8
2018-01-22T07:20:53.198Z,994.9
2018-01-22T07:21:54.804Z,994.8
2018-01-22T07:24:26.368Z,994.9
2018-01-22T07:25:27.970Z,994.8
2018-01-22T07:27:23.266Z,994.9
2018-01-22T07:28:24.907Z,994.8
2018-01-22T07:30:16.553Z,994.9
2018-01-22T07:31:18.157Z,994.9
2018-01-22T07:33:49.479Z,994.8
2018-01-22T07:34:51.085Z,994.8
2018-01-22T07:37:12.975Z,995.0
2018-01-22T07:38:14.584Z,995.0
2018-01-22T07:40:34.804Z,995.0
2018-01-22T07:41:36.413Z,995.1
2018-01-22T07:43:57.545Z,995.0
2018-01-22T07:44:59.151Z,995.1
2018-01-22T07:47:02.339Z,995.0
2018-01-22T07:48:03.944Z,994.9
2018-01-22T07:49:05.552Z,994.9
2018-01-22T07:50:07.168Z,995.0
2018-01-22T07:51:08.776Z,995.0
2018-01-22T07:52:10.384Z,995.0
2018-01-22T07:53:11.992Z,995.1
2018-01-22T07:54:13.607Z,995.1
2018-01-22T07:55:15.207Z,995.1
2018-01-22T07:56:16.823Z,995.0
2018-01-22T07:57:18.432Z,995.1
2018-01-22T07:58:20.039Z,995.1
2018-01-22T07:59:21.648Z,995.2
2018-01-22T08:00:23.260Z,995.1
2018-01-22T08:01:24.873Z,995.2
2018-01-22T08:02:26.476Z,995.2
2018-01-22T08:03:28.084Z,995.3
2018-01-22T08:04:29.696Z,995.3
2018-01-22T08:05:31.305Z,995.2
2018-01-22T08:06:32.911Z,995.2
2018-01-22T08:07:34.522Z,995.3
2018-01-22T08:08:36.135Z,995.4
2018-01-22T08:09:37.750Z,995.4
2018-01-22T08:10:39.352Z,995.4
2018-01-22T08:11:40.958Z,995.3
2018-01-22T08:12:42.571Z,995.3
2018-01-22T08:13:44.178Z,995.2
2018-01-22T08:14:45.791Z,995.2
2018-01-22T08:15:47.399Z,995.2
2018-01-22T08:16:49.008Z,995.2
2018-01-22T08:17:50.615Z,995.2
2018-01-22T08:18:52.227Z,995.2
2018-01-22T08:19:53.839Z,995.2
2018-01-22T08:20:55.444Z,995.2
2018-01-22T08:21:57.054Z,995.2
2018-01-22T08:22:58.668Z,995.2
2018-01-22T08:24:00.279Z,995.2
2018-01-22T08:25:01.885Z,995.1
2018-01-22T08:26:03.495Z,995.1
2018-01-22T08:27:05.108Z,995.0
2018-01-22T08:28:06.721Z,995.1
2018-01-22T08:29:08.329Z,995.1
2018-01-22T08:30:09.944Z,995.1
2018-01-22T08:31:11.549Z,995.1
2018-01-22T08:32:13.189Z,995.1
2018-01-22T08:33:14.795Z,995.0
2018-01-22T08:34:16.408Z,995.1
2018-01-22T08:35:18.016Z,995.0
2018-01-22T08:36:19.627Z,995.0
2018-01-22T08:37:21.241Z,995.0
2018-01-22T08:38:22.848Z,995.1
2018-01-22T08:39:24.460Z,995.0
2018-01-22T08:40:26.066Z,995.1
2018-01-22T08:41:27.681Z,995.1
2018-01-22T08:42:29.289Z,995.1
2018-01-22T08:43:30.905Z,995.1
2018-01-22T08:44:32.520Z,995.1
2018-01-22T08:45:34.125Z,995.1
2018-01-22T08:46:35.737Z,995.2
2018-01-22T08:47:37.348Z,995.1
2018-01-22T08:48:38.961Z,995.2
2018-01-22T08:49:40.566Z,995.1
2018-01-22T08:50:42.179Z,995.2
2018-01-22T08:51:43.793Z,995.2
2018-01-22T08:52:45.405Z,995.2
2018-01-22T08:53:47.013Z,995.1
2018-01-22T08:54:48.630Z,995.1
2018-01-22T08:55:50.242Z,995.2
2018-01-22T08:56:51.856Z,995.2
2018-01-22T08:57:53.466Z,995.3
2018-01-22T08:58:55.080Z,995.3
2018-01-22T08:59:56.683Z,995.3
2018-01-22T09:00:58.296Z,995.3
2018-01-22T09:01:59.906Z,995.4
2018-01-22T09:03:01.518Z,995.4
2018-01-22T09:04:03.126Z,995.4
2018-01-22T09:05:04.737Z,995.5
2018-01-22T09:06:06.353Z,995.4
2018-01-22T09:07:07.962Z,995.4
2018-01-22T09:08:09.569Z,995.4
2018-01-22T09:09:11.189Z,995.4
2018-01-22T09:10:12.790Z,995.4
2018-01-22T09:11:14.399Z,995.4
2018-01-22T09:12:16.014Z,995.4
2018-01-22T09:13:17.630Z,995.5
2018-01-22T09:14:19.236Z,995.7
2018-01-22T09:15:20.847Z,995.5
2018-01-22T09:16:22.463Z,995.5
2018-01-22T09:17:24.078Z,995.6
2018-01-22T09:18:25.685Z,995.6
2018-01-22T09:19:27.303Z,995.6
2018-01-22T09:20:28.910Z,995.7
2018-01-22T09:21:30.524Z,995.6
2018-01-22T09:22:32.132Z,995.5
2018-01-22T09:23:33.744Z,995.7
2018-01-22T09:24:35.354Z,995.6
2018-01-22T09:25:36.971Z,995.6
2018-01-22T09:26:38.587Z,995.6
2018-01-22T09:27:40.208Z,995.7
2018-01-22T09:28:41.816Z,995.7
2018-01-22T09:29:43.434Z,995.7
2018-01-22T09:30:45.043Z,995.8
2018-01-22T09:31:46.662Z,995.8
2018-01-22T09:32:48.277Z,995.9
2018-01-22T09:33:49.887Z,995.9
2018-01-22T09:34:51.501Z,995.9
2018-01-22T09:35:53.108Z,995.8
2018-01-22T09:36:54.722Z,995.8
2018-01-22T09:37:56.329Z,995.9
2018-01-22T09:38:58.789Z,995.9
2018-01-22T09:40:00.397Z,995.9
2018-01-22T09:41:02.014Z,995.9
2018-01-22T09:42:03.624Z,995.9
2018-01-22T09:43:05.232Z,995.9
2018-01-22T09:44:06.844Z,995.9
2018-01-22T09:45:08.459Z,995.9
2018-01-22T09:46:10.067Z,995.9
2018-01-22T09:47:11.683Z,995.9
2018-01-22T09:48:13.293Z,995.8
2018-01-22T09:49:14.905Z,995.8
2018-01-22T09:50:16.520Z,995.9
2018-01-22T09:51:18.131Z,995.9
2018-01-22T09:52:19.743Z,995.9
2018-01-22T09:53:21.361Z,995.9
2018-01-22T09:54:22.978Z,995.9
2018-01-22T09:55:24.588Z,995.9
2018-01-22T09:56:26.199Z,996.0
2018-01-22T09:57:27.815Z,995.9
2018-01-22T09:58:29.426Z,996.0
2018-01-22T09:59:31.045Z,996.0
2018-01-22T10:00:32.655Z,996.0
2018-01-22T10:01:34.269Z,996.0
2018-01-22T10:02:35.888Z,996.0
2018-01-22T10:03:37.507Z,996.0
2018-01-22T10:04:39.119Z,996.0
2018-01-22T10:05:40.731Z,996.0
2018-01-22T10:06:42.341Z,996.0
2018-01-22T10:07:43.961Z,996.0
2018-01-22T10:08:45.583Z,996.0
2018-01-22T10:09:47.188Z,996.0
2018-01-22T10:10:48.804Z,996.0
2018-01-22T10:11:50.420Z,996.0
2018-01-22T10:12:52.036Z,996.0
2018-01-22T10:13:53.646Z,996.0
2018-01-22T10:14:55.264Z,996.0
2018-01-22T10:15:56.876Z,996.0
2018-01-22T10:16:58.495Z,996.0
2018-01-22T10:18:00.114Z,996.0
2018-01-22T10:19:01.723Z,996.0
2018-01-22T10:20:03.336Z,996.0
2018-01-22T10:22:36.636Z,996.1
2018-01-22T10:26:01.373Z,996.1
2018-01-22T10:27:02.996Z,996.1
2018-01-22T10:30:24.598Z,996.1
2018-01-22T10:31:26.238Z,996.1
2018-01-22T10:38:16.786Z,996.2
2018-01-22T10:39:18.401Z,996.2
2018-01-22T10:40:20.042Z,996.2
2018-01-22T10:41:21.626Z,996.2
2018-01-22T10:42:23.243Z,996.3
2018-01-22T10:43:24.857Z,996.3
2018-01-22T10:44:26.475Z,996.3
2018-01-22T10:45:28.094Z,996.3
2018-01-22T10:46:29.707Z,996.3
2018-01-22T10:47:31.319Z,996.3
2018-01-22T10:48:32.932Z,996.4
2018-01-22T10:49:34.548Z,996.3
2018-01-22T10:50:36.160Z,996.3
2018-01-22T10:51:37.781Z,996.3
2018-01-22T10:52:39.396Z,996.3
2018-01-22T10:53:41.007Z,996.3
2018-01-22T10:54:42.626Z,996.3
2018-01-22T10:55:44.240Z,996.3
2018-01-22T10:56:45.856Z,996.3
2018-01-22T10:57:47.468Z,996.3
2018-01-22T10:58:49.091Z,996.3
2018-01-22T10:59:50.711Z,996.2
2018-01-22T11:00:52.318Z,996.2
2018-01-22T11:01:53.933Z,996.3
2018-01-22T11:02:55.545Z,996.2
2018-01-22T11:03:57.167Z,996.2
2018-01-22T11:04:58.784Z,996.2
2018-01-22T11:06:00.397Z,996.2
2018-01-22T11:07:02.992Z,996.2
2018-01-22T11:08:04.559Z,996.2
2018-01-22T11:09:06.181Z,996.1
2018-01-22T11:10:07.797Z,996.2
2018-01-22T11:11:09.413Z,996.2
2018-01-22T11:12:11.023Z,996.2
2018-01-22T11:13:12.644Z,996.2
2018-01-22T11:14:14.258Z,996.2
2018-01-22T11:15:15.876Z,996.2
2018-01-22T11:16:17.493Z,996.2
2018-01-22T11:17:19.103Z,996.2
2018-01-22T11:18:20.720Z,996.2
2018-01-22T11:19:22.336Z,996.3
2018-01-22T11:20:23.957Z,996.3
2018-01-22T11:21:25.572Z,996.2
2018-01-22T11:22:27.189Z,996.2
2018-01-22T11:23:28.800Z,996.2
2018-01-22T11:24:30.422Z,996.3
2018-01-22T11:25:32.035Z,996.3
2018-01-22T11:26:33.656Z,996.3
2018-01-22T11:27:35.268Z,996.3
2018-01-22T11:28:36.899Z,996.3
2018-01-22T11:29:38.509Z,996.3
2018-01-22T11:30:40.128Z,996.3
2018-01-22T11:31:41.742Z,996.3
2018-01-22T11:32:43.360Z,996.3
2018-01-22T11:33:44.978Z,996.3
2018-01-22T11:34:46.597Z,996.3
2018-01-22T11:35:48.212Z,996.3
2018-01-22T11:36:49.825Z,996.3
2018-01-22T11:37:51.444Z,996.3
2018-01-22T11:38:53.059Z,996.3
2018-01-22T11:39:54.673Z,996.3
2018-01-22T11:40:56.292Z,996.3
2018-01-22T11:41:57.911Z,996.3
2018-01-22T11:42:59.531Z,996.3
2018-01-22T11:44:01.143Z,996.3
2018-01-22T11:45:02.757Z,996.3
2018-01-22T11:46:04.378Z,996.3
2018-01-22T11:47:05.999Z,996.3
2018-01-22T11:48:07.612Z,996.3
2018-01-22T11:49:09.230Z,996.3
2018-01-22T11:50:10.853Z,996.3
2018-01-22T11:51:12.468Z,996.3
2018-01-22T11:52:14.081Z,996.3
2018-01-22T11:53:15.695Z,996.3
2018-01-22T11:54:17.314Z,996.3
2018-01-22T11:55:18.932Z,996.3
2018-01-22T11:56:20.549Z,996.4
2018-01-22T11:57:22.165Z,996.4
2018-01-22T11:58:23.780Z,996.5
2018-01-22T11:59:25.398Z,996.5
2018-01-22T12:00:27.009Z,996.4
2018-01-22T12:01:28.624Z,996.4
2018-01-22T12:02:30.243Z,996.4
2018-01-22T12:03:31.865Z,996.3
2018-01-22T12:04:33.477Z,996.4
2018-01-22T12:05:35.091Z,996.4
2018-01-22T12:06:36.711Z,996.3
2018-01-22T12:07:38.322Z,996.4
2018-01-22T12:08:39.942Z,996.4
2018-01-22T12:09:41.558Z,996.3
2018-01-22T12:10:43.180Z,996.4
2018-01-22T12:11:44.795Z,996.4
2018-01-22T12:12:46.413Z,996.4
2018-01-22T12:13:48.026Z,996.5
2018-01-22T12:14:49.645Z,996.5
2018-01-22T12:15:51.260Z,996.5
2018-01-22T12:16:52.879Z,996.5
2018-01-22T12:17:54.524Z,996.6
2018-01-22T12:18:56.115Z,996.5
2018-01-22T12:19:57.727Z,996.6
2018-01-22T12:20:59.347Z,996.6
2018-01-22T12:22:00.964Z,996.6
2018-01-22T12:23:02.588Z,996.6
2018-01-22T12:24:04.221Z,996.6
2018-01-22T12:25:05.818Z,996.6
2018-01-22T12:26:07.434Z,996.6
2018-01-22T12:27:09.052Z,996.6
2018-01-22T12:28:10.664Z,996.5
2018-01-22T12:29:12.282Z,996.5
2018-01-22T12:30:13.899Z,996.5
2018-01-22T12:31:15.514Z,996.5
2018-01-22T12:32:17.133Z,996.6
2018-01-22T12:33:18.749Z,996.6
2018-01-22T12:34:20.367Z,996.6
2018-01-22T12:35:21.979Z,996.6
2018-01-22T12:36:23.598Z,996.6
2018-01-22T12:37:25.210Z,996.6
2018-01-22T12:38:26.827Z,996.7
2018-01-22T12:39:28.441Z,996.7
2018-01-22T12:40:30.061Z,996.7
2018-01-22T12:41:31.671Z,996.7
2018-01-22T12:42:33.291Z,996.7
2018-01-22T12:43:34.901Z,996.7
2018-01-22T12:44:36.519Z,996.7
2018-01-22T12:45:38.131Z,996.8
2018-01-22T12:46:39.744Z,996.9
2018-01-22T12:47:41.373Z,996.9
2018-01-22T12:48:43.040Z,996.9
2018-01-22T12:49:44.598Z,996.9
2018-01-22T12:50:46.207Z,997.0
2018-01-22T12:51:47.830Z,996.9
2018-01-22T12:52:49.444Z,997.0
2018-01-22T12:53:51.058Z,997.0
2018-01-22T12:54:52.678Z,997.0
2018-01-22T12:55:54.288Z,997.0
2018-01-22T12:56:55.902Z,997.0
2018-01-22T12:57:57.520Z,997.0
2018-01-22T12:58:59.138Z,997.0
2018-01-22T13:00:00.748Z,997.0
2018-01-22T13:01:02.366Z,997.1
2018-01-22T13:02:03.984Z,997.1
2018-01-22T13:03:05.596Z,997.0
2018-01-22T13:04:07.261Z,997.1
2018-01-22T13:05:08.831Z,997.1
2018-01-22T13:06:10.450Z,997.1
2018-01-22T13:07:12.060Z,997.1
2018-01-22T13:10:06.672Z,997.1
2018-01-22T13:11:08.287Z,997.1
2018-01-22T20:53:03.327Z,1004.8
2018-01-22T20:54:55.044Z,1004.9
2018-01-22T20:55:56.654Z,1004.9
2018-01-22T20:56:58.265Z,1004.9
2018-01-22T20:57:59.874Z,1005.0
2018-01-22T20:59:01.484Z,1005.0
2018-01-22T21:00:03.090Z,1004.9
2018-01-22T21:01:04.697Z,1005.0
2018-01-22T21:02:06.361Z,1005.1
2018-01-22T21:03:07.970Z,1005.1
2018-01-22T21:04:09.575Z,1005.1
2018-01-22T21:05:11.240Z,1005.1
2018-01-22T21:06:12.848Z,1005.1
2018-01-22T21:07:14.487Z,1005.1
2018-01-22T21:08:16.330Z,1005.1
2018-01-22T21:09:17.946Z,1005.1
2018-01-22T21:10:20.594Z,1005.2
2018-01-22T21:11:22.206Z,1005.3
2018-01-22T21:12:23.879Z,1005.3
2018-01-22T21:13:25.485Z,1005.3
2018-01-22T21:14:27.088Z,1005.3
2018-01-22T21:15:28.710Z,1005.3
2018-01-22T21:16:30.337Z,1005.2
2018-01-22T21:17:31.951Z,1005.2
2018-01-22T21:18:33.568Z,1005.2
2018-01-22T21:19:35.240Z,1005.2
2018-01-22T21:20:36.854Z,1005.2
2018-01-22T21:21:38.466Z,1005.2
2018-01-22T21:22:40.075Z,1005.3
2018-01-22T21:23:41.686Z,1005.4
2018-01-22T21:24:43.297Z,1005.5
2018-01-22T21:25:44.906Z,1005.5
2018-01-22T21:26:46.511Z,1005.4
2018-01-22T21:27:48.119Z,1005.4
2018-01-22T21:28:49.795Z,1005.4